createdAt,value
2022-08-07T00:00:31.708Z,0.00
2022-08-07T00:01:44.521Z,0.00
2022-08-07T00:02:36.710Z,0.00
2022-08-07T00:03:36.650Z,0.00
2022-08-07T00:04:31.510Z,0.00
2022-08-07T00:05:31.589Z,0.00
2022-08-07T00:06:33.496Z,0.00
2022-08-07T00:07:40.843Z,0.00
2022-08-07T00:08:33.145Z,0.00
2022-08-07T00:09:34.323Z,0.00
2022-08-07T00:10:33.929Z,0.00
2022-08-07T00:11:33.946Z,0.00
2022-08-07T00:12:33.767Z,0.00
2022-08-07T00:13:32.985Z,0.00
2022-08-07T00:14:33.119Z,0.00
2022-08-07T00:15:36.119Z,0.00
2022-08-07T00:16:34.497Z,0.00
2022-08-07T00:17:35.258Z,0.00
2022-08-07T00:18:33.855Z,0.00
2022-08-07T00:20:01.088Z,0.00
2022-08-07T00:20:35.441Z,0.00
2022-08-07T00:21:56.269Z,0.00
2022-08-07T00:22:35.768Z,0.00
2022-08-07T00:23:35.441Z,0.00
2022-08-07T00:24:35.435Z,0.00
2022-08-07T00:25:37.458Z,0.00
2022-08-07T00:26:48.807Z,0.00
2022-08-07T00:27:52.425Z,0.00
2022-08-07T00:28:45.695Z,0.00
2022-08-07T00:29:37.436Z,0.00
2022-08-07T00:30:35.813Z,0.00
2022-08-07T00:31:38.060Z,0.00
2022-08-07T00:32:37.145Z,0.00
2022-08-07T00:33:36.398Z,0.00
2022-08-07T00:34:37.443Z,0.00
2022-08-07T00:35:36.842Z,0.00
2022-08-07T00:36:38.577Z,0.00
2022-08-07T00:37:47.731Z,0.00
2022-08-07T00:38:39.146Z,0.00
2022-08-07T00:39:37.661Z,0.00
2022-08-07T00:40:40.413Z,0.00
2022-08-07T00:41:53.043Z,0.00
2022-08-07T00:42:39.062Z,0.00
2022-08-07T00:44:00.198Z,0.00
2022-08-07T00:44:41.260Z,0.00
2022-08-07T00:45:38.633Z,0.00
2022-08-07T00:46:38.736Z,0.00
2022-08-07T00:48:09.912Z,0.00
2022-08-07T00:48:42.201Z,0.00
2022-08-07T00:50:21.367Z,0.00
2022-08-07T00:50:46.355Z,0.00
2022-08-07T00:51:58.236Z,0.00
2022-08-07T00:52:40.618Z,0.00
2022-08-07T00:53:50.182Z,0.00
2022-08-07T00:54:40.974Z,0.00
2022-08-07T00:56:03.403Z,0.00
2022-08-07T00:56:41.342Z,0.00
2022-08-07T00:57:44.549Z,0.00
2022-08-07T00:58:41.699Z,0.00
2022-08-07T00:59:40.953Z,0.00
2022-08-07T01:00:53.420Z,0.00
2022-08-07T01:01:44.606Z,0.00
2022-08-07T01:02:41.439Z,0.00
2022-08-07T01:03:57.350Z,0.00
2022-08-07T01:04:43.123Z,0.00
2022-08-07T01:05:42.946Z,0.00
2022-08-07T01:06:43.179Z,0.00
2022-08-07T01:07:42.297Z,0.00
2022-08-07T01:08:51.563Z,0.00
2022-08-07T01:10:05.812Z,0.00
2022-08-07T01:10:47.686Z,0.00
2022-08-07T01:12:09.829Z,0.00
2022-08-07T01:12:53.881Z,0.00
2022-08-07T01:13:46.729Z,0.00
2022-08-07T01:14:45.449Z,0.00
2022-08-07T01:16:05.111Z,0.00
2022-08-07T01:16:47.273Z,0.00
2022-08-07T01:17:44.462Z,0.00
2022-08-07T01:18:44.949Z,0.00
2022-08-07T01:19:44.997Z,0.00
2022-08-07T01:20:45.538Z,0.00
2022-08-07T01:21:45.961Z,0.00
2022-08-07T01:22:46.897Z,0.00
2022-08-07T01:23:46.677Z,0.00
2022-08-07T01:24:47.550Z,0.00
2022-08-07T01:25:55.244Z,0.00
2022-08-07T01:26:51.555Z,0.00
2022-08-07T01:27:51.110Z,0.00
2022-08-07T01:28:48.492Z,0.00
2022-08-07T01:29:46.175Z,0.00
2022-08-07T01:30:46.332Z,0.00
2022-08-07T01:31:48.669Z,0.00
2022-08-07T01:32:47.483Z,0.00
2022-08-07T01:33:55.461Z,0.00
2022-08-07T01:34:49.191Z,0.00
2022-08-07T01:35:53.629Z,0.00
2022-08-07T01:36:52.644Z,0.00
2022-08-07T01:37:48.519Z,0.00
2022-08-07T01:38:47.718Z,0.00
2022-08-07T01:39:48.500Z,0.00
2022-08-07T01:40:48.958Z,0.00
2022-08-07T01:41:55.246Z,0.00
2022-08-07T01:42:57.350Z,0.00
2022-08-07T01:43:49.543Z,0.00
2022-08-07T01:44:48.663Z,0.00
2022-08-07T01:45:49.477Z,0.00
2022-08-07T01:46:49.980Z,0.00
2022-08-07T01:48:19.897Z,0.00
2022-08-07T01:48:50.958Z,0.00
2022-08-07T01:49:49.448Z,0.00
2022-08-07T01:50:50.618Z,0.00
2022-08-07T01:52:02.440Z,0.00
2022-08-07T01:52:54.962Z,0.00
2022-08-07T01:54:09.999Z,0.00
2022-08-07T01:54:51.245Z,0.00
2022-08-07T01:55:50.389Z,0.00
2022-08-07T01:56:51.461Z,0.00
2022-08-07T01:58:05.900Z,0.00
2022-08-07T01:58:51.901Z,0.00
2022-08-07T01:59:51.080Z,0.00
2022-08-07T02:00:52.046Z,0.00
2022-08-07T02:02:00.035Z,0.00
2022-08-07T02:03:18.387Z,0.00
2022-08-07T02:03:53.494Z,0.00
2022-08-07T02:04:56.300Z,0.00
2022-08-07T02:06:01.015Z,0.00
2022-08-07T02:06:53.259Z,0.00
2022-08-07T02:07:52.633Z,0.00
2022-08-07T02:08:54.187Z,0.00
2022-08-07T02:09:58.563Z,0.00
2022-08-07T02:10:57.875Z,0.00
2022-08-07T02:12:03.572Z,0.00
2022-08-07T02:12:54.324Z,0.00
2022-08-07T02:13:58.312Z,0.00
2022-08-07T02:14:54.594Z,0.00
2022-08-07T02:15:54.001Z,0.00
2022-08-07T02:16:54.969Z,0.00
2022-08-07T02:17:54.210Z,0.00
2022-08-07T02:18:54.407Z,0.00
2022-08-07T02:20:07.846Z,0.00
2022-08-07T02:20:55.814Z,0.00
2022-08-07T02:21:55.902Z,0.00
2022-08-07T02:22:55.320Z,0.00
2022-08-07T02:23:55.144Z,0.00
2022-08-07T02:24:55.973Z,0.00
2022-08-07T02:26:30.570Z,0.00
2022-08-07T02:26:57.467Z,0.00
2022-08-07T02:27:55.847Z,0.00
2022-08-07T02:28:56.098Z,0.00
2022-08-07T02:29:56.297Z,0.00
2022-08-07T02:30:56.443Z,0.00
2022-08-07T02:31:56.633Z,0.00
2022-08-07T02:33:07.258Z,0.00
2022-08-07T02:34:02.809Z,0.00
2022-08-07T02:35:00.730Z,0.00
2022-08-07T02:36:30.864Z,0.00
2022-08-07T02:36:59.993Z,0.00
2022-08-07T02:37:57.808Z,0.00
2022-08-07T02:38:57.962Z,0.00
2022-08-07T02:40:02.475Z,0.00
2022-08-07T02:40:59.476Z,0.00
2022-08-07T02:41:59.514Z,0.00
2022-08-07T02:42:58.875Z,0.00
2022-08-07T02:43:59.044Z,0.00
2022-08-07T02:44:59.187Z,0.00
2022-08-07T02:46:01.908Z,0.00
2022-08-07T02:47:00.841Z,0.00
2022-08-07T02:48:01.866Z,0.00
2022-08-07T02:48:59.903Z,0.00
2022-08-07T02:50:00.612Z,0.00
2022-08-07T02:51:00.193Z,0.00
2022-08-07T02:52:00.335Z,0.00
2022-08-07T02:53:00.811Z,0.00
2022-08-07T02:54:01.479Z,0.00
2022-08-07T02:55:00.956Z,0.00
2022-08-07T02:56:03.236Z,0.00
2022-08-07T02:57:01.979Z,0.00
2022-08-07T02:58:01.348Z,0.00
2022-08-07T02:59:01.509Z,0.00
2022-08-07T03:00:04.870Z,0.00
2022-08-07T03:01:03.139Z,0.00
2022-08-07T03:02:02.543Z,0.00
2022-08-07T03:03:06.072Z,0.00
2022-08-07T03:04:03.517Z,0.00
2022-08-07T03:05:05.044Z,0.00
2022-08-07T03:06:02.763Z,0.00
2022-08-07T03:07:07.149Z,0.00
2022-08-07T03:08:07.166Z,0.00
2022-08-07T03:09:04.330Z,0.00
2022-08-07T03:10:03.547Z,0.00
2022-08-07T03:11:03.789Z,0.00
2022-08-07T03:12:03.961Z,0.00
2022-08-07T03:13:04.493Z,0.00
2022-08-07T03:14:04.358Z,0.00
2022-08-07T03:15:07.963Z,0.00
2022-08-07T03:16:05.481Z,0.00
2022-08-07T03:17:04.874Z,0.00
2022-08-07T03:18:05.058Z,0.00
2022-08-07T03:19:06.221Z,0.00
2022-08-07T03:20:05.349Z,0.00
2022-08-07T03:21:08.655Z,0.00
2022-08-07T03:22:05.613Z,0.00
2022-08-07T03:23:06.785Z,0.00
2022-08-07T03:24:20.659Z,0.00
2022-08-07T03:25:07.088Z,0.00
2022-08-07T03:26:06.263Z,0.00
2022-08-07T03:27:08.869Z,4.00
2022-08-07T03:28:09.556Z,0.00
2022-08-07T03:29:11.191Z,0.00
2022-08-07T03:30:07.895Z,0.00
2022-08-07T03:31:07.022Z,4.00
2022-08-07T03:32:07.222Z,0.00
2022-08-07T03:33:08.654Z,0.00
2022-08-07T03:34:07.578Z,4.00
2022-08-07T03:35:17.855Z,4.00
2022-08-07T03:36:10.493Z,4.00
2022-08-07T03:37:12.273Z,4.00
2022-08-07T03:38:08.332Z,8.00
2022-08-07T03:39:09.003Z,8.00
2022-08-07T03:40:16.738Z,8.00
2022-08-07T03:41:10.436Z,8.00
2022-08-07T03:42:09.498Z,8.00
2022-08-07T03:43:13.815Z,8.00
2022-08-07T03:44:10.384Z,12.00
2022-08-07T03:45:10.489Z,12.00
2022-08-07T03:46:18.196Z,16.00
2022-08-07T03:47:14.512Z,16.00
2022-08-07T03:48:11.376Z,16.00
2022-08-07T03:49:10.987Z,24.00
2022-08-07T03:50:11.320Z,24.00
2022-08-07T03:51:10.467Z,28.00
2022-08-07T03:52:22.276Z,28.00
2022-08-07T03:53:11.860Z,28.00
2022-08-07T03:54:36.324Z,36.00
2022-08-07T03:55:12.349Z,40.00
2022-08-07T03:56:13.622Z,44.00
2022-08-07T03:57:11.672Z,48.00
2022-08-07T03:59:04.806Z,56.00
2022-08-07T03:59:13.681Z,60.00
2022-08-07T04:00:12.372Z,64.00
2022-08-07T04:01:13.949Z,72.00
2022-08-07T04:02:13.499Z,76.00
2022-08-07T04:03:14.076Z,80.00
2022-08-07T04:04:17.097Z,84.00
2022-08-07T04:05:13.355Z,96.00
2022-08-07T04:06:38.419Z,104.00
2022-08-07T04:07:17.392Z,108.00
2022-08-07T04:08:16.266Z,120.00
2022-08-07T04:09:15.737Z,128.00
2022-08-07T04:10:15.650Z,136.00
2022-08-07T04:12:23.604Z,156.00
2022-08-07T04:12:23.897Z,144.00
2022-08-07T04:13:16.497Z,164.00
2022-08-07T04:14:37.631Z,176.00
2022-08-07T04:15:17.017Z,184.00
2022-08-07T04:16:15.241Z,196.00
2022-08-07T04:17:20.223Z,204.00
2022-08-07T04:18:56.976Z,212.00
2022-08-07T04:19:17.589Z,224.00
2022-08-07T04:20:16.151Z,236.00
2022-08-07T04:21:16.563Z,248.00
2022-08-07T04:22:17.791Z,260.00
2022-08-07T04:23:19.197Z,272.00
2022-08-07T04:24:34.215Z,280.00
2022-08-07T04:25:18.997Z,292.00
2022-08-07T04:26:21.934Z,304.00
2022-08-07T04:27:20.509Z,316.00
2022-08-07T04:28:18.614Z,324.00
2022-08-07T04:29:17.780Z,340.00
2022-08-07T04:30:21.341Z,352.00
2022-08-07T04:31:20.031Z,360.00
2022-08-07T04:32:27.205Z,372.00
2022-08-07T04:33:20.012Z,384.00
2022-08-07T04:34:27.399Z,396.00
2022-08-07T04:35:20.514Z,408.00
2022-08-07T04:36:26.020Z,424.00
2022-08-07T04:37:20.740Z,432.00
2022-08-07T04:38:19.521Z,440.00
2022-08-07T04:39:25.507Z,452.00
2022-08-07T04:40:21.806Z,468.00
2022-08-07T04:41:22.002Z,484.00
2022-08-07T04:42:20.198Z,496.00
2022-08-07T04:43:20.360Z,508.00
2022-08-07T04:44:20.497Z,516.00
2022-08-07T04:45:57.733Z,528.00
2022-08-07T04:46:26.065Z,536.00
2022-08-07T04:47:56.709Z,548.00
2022-08-07T04:48:22.291Z,560.00
2022-08-07T04:49:25.592Z,572.00
2022-08-07T04:50:22.276Z,584.00
2022-08-07T04:51:21.663Z,596.00
2022-08-07T04:52:25.146Z,616.00
2022-08-07T04:53:40.201Z,628.00
2022-08-07T04:54:29.915Z,640.00
2022-08-07T04:58:12.969Z,644.00
2022-08-07T04:58:14.294Z,652.00
2022-08-07T04:58:14.864Z,672.00
2022-08-07T04:58:49.804Z,692.00
2022-08-07T05:00:11.221Z,712.00
2022-08-07T05:00:30.028Z,732.00
2022-08-07T05:01:30.198Z,752.00
2022-08-07T05:02:24.836Z,776.00
2022-08-07T05:03:59.957Z,804.00
2022-08-07T05:04:26.375Z,1012.00
2022-08-07T05:05:53.292Z,1792.00
2022-08-07T05:06:28.152Z,3644.00
2022-08-07T05:07:30.391Z,2060.00
2022-08-07T05:08:59.307Z,1136.00
2022-08-07T05:09:43.170Z,1068.00
2022-08-07T05:10:26.287Z,1008.00
2022-08-07T05:11:26.329Z,988.00
2022-08-07T05:12:27.732Z,1140.00
2022-08-07T05:14:52.508Z,1532.00
2022-08-07T05:14:54.136Z,1752.00
2022-08-07T05:15:28.015Z,1368.00
2022-08-07T05:16:27.039Z,1228.00
2022-08-07T05:17:52.658Z,1160.00
2022-08-07T05:18:29.598Z,1128.00
2022-08-07T05:19:44.062Z,1128.00
2022-08-07T05:20:28.023Z,1152.00
2022-08-07T05:22:00.856Z,1188.00
2022-08-07T05:22:29.017Z,1180.00
2022-08-07T05:23:29.124Z,1168.00
2022-08-07T05:24:30.375Z,1160.00
2022-08-07T05:26:10.938Z,1168.00
2022-08-07T05:26:28.055Z,1184.00
2022-08-07T05:28:16.751Z,1204.00
2022-08-07T05:28:29.707Z,1212.00
2022-08-07T05:29:39.000Z,1228.00
2022-08-07T05:30:32.406Z,1228.00
2022-08-07T05:31:34.599Z,1228.00
2022-08-07T05:32:30.164Z,1256.00
2022-08-07T05:33:29.327Z,1284.00
2022-08-07T05:34:29.503Z,1316.00
2022-08-07T05:35:33.248Z,1352.00
2022-08-07T05:36:30.384Z,1420.00
2022-08-07T05:37:40.918Z,2048.00
2022-08-07T05:39:00.225Z,3520.00
2022-08-07T05:40:05.098Z,3424.00
2022-08-07T05:40:31.675Z,1536.00
2022-08-07T05:42:00.648Z,1488.00
2022-08-07T05:42:33.736Z,1464.00
2022-08-07T05:43:49.622Z,1456.00
2022-08-07T05:44:33.018Z,1456.00
2022-08-07T05:45:47.293Z,1464.00
2022-08-07T05:46:33.517Z,1456.00
2022-08-07T05:47:38.692Z,1460.00
2022-08-07T05:48:33.083Z,1460.00
2022-08-07T05:49:40.485Z,1460.00
2022-08-07T05:50:33.549Z,1492.00
2022-08-07T05:51:33.521Z,1580.00
2022-08-07T05:52:33.889Z,1692.00
2022-08-07T05:54:14.150Z,1640.00
2022-08-07T05:54:53.575Z,1580.00
2022-08-07T05:56:03.511Z,1600.00
2022-08-07T05:56:35.519Z,1620.00
2022-08-07T05:57:34.694Z,1628.00
2022-08-07T05:58:36.695Z,1632.00
2022-08-07T05:59:46.556Z,1644.00
2022-08-07T06:00:35.353Z,1672.00
2022-08-07T06:01:35.804Z,1708.00
2022-08-07T06:02:34.746Z,1860.00
2022-08-07T06:03:56.438Z,2364.00
2022-08-07T06:04:35.993Z,1784.00
2022-08-07T06:05:35.192Z,1816.00
2022-08-07T06:06:36.033Z,1856.00
2022-08-07T06:08:13.648Z,1888.00
2022-08-07T06:08:39.238Z,1900.00
2022-08-07T06:10:03.148Z,1836.00
2022-08-07T06:10:37.119Z,1904.00
2022-08-07T06:11:36.538Z,1996.00
2022-08-07T06:12:36.560Z,2028.00
2022-08-07T06:14:10.461Z,2040.00
2022-08-07T06:14:37.862Z,2060.00
2022-08-07T06:15:42.226Z,2076.00
2022-08-07T06:16:38.120Z,2108.00
2022-08-07T06:17:38.532Z,2128.00
2022-08-07T06:18:37.521Z,2148.00
2022-08-07T06:19:52.253Z,2192.00
2022-08-07T06:20:50.240Z,2408.00
2022-08-07T06:22:16.733Z,14984.00
2022-08-07T06:22:40.206Z,24512.00
2022-08-07T06:24:37.748Z,16064.00
2022-08-07T06:24:53.504Z,2560.00
2022-08-07T06:25:40.769Z,2612.00
2022-08-07T06:26:39.979Z,4996.00
2022-08-07T06:27:44.390Z,6052.00
2022-08-07T06:28:40.388Z,5556.00
2022-08-07T06:29:40.048Z,2276.00
2022-08-07T06:30:45.396Z,2256.00
2022-08-07T06:31:49.904Z,2272.00
2022-08-07T06:32:42.056Z,2280.00
2022-08-07T06:33:41.035Z,2284.00
2022-08-07T06:34:45.173Z,2296.00
2022-08-07T06:35:47.610Z,2300.00
2022-08-07T06:36:43.037Z,2300.00
2022-08-07T06:37:43.603Z,2304.00
2022-08-07T06:38:51.148Z,2304.00
2022-08-07T06:40:17.435Z,2308.00
2022-08-07T06:40:45.719Z,2324.00
2022-08-07T06:42:00.677Z,2340.00
2022-08-07T06:42:44.047Z,2336.00
2022-08-07T06:43:46.107Z,2344.00
2022-08-07T06:44:42.752Z,2352.00
2022-08-07T06:45:44.212Z,2376.00
2022-08-07T06:46:43.014Z,2404.00
2022-08-07T06:47:48.033Z,2424.00
2022-08-07T06:48:44.463Z,2396.00
2022-08-07T06:49:52.450Z,2420.00
2022-08-07T06:50:47.970Z,2428.00
2022-08-07T06:51:50.142Z,2440.00
2022-08-07T06:52:45.098Z,2488.00
2022-08-07T06:54:11.778Z,2536.00
2022-08-07T06:55:31.492Z,2620.00
2022-08-07T06:56:00.472Z,4912.00
2022-08-07T06:56:49.527Z,21952.00
2022-08-07T06:57:52.106Z,49216.00
2022-08-07T07:00:13.970Z,18464.00
2022-08-07T07:00:14.841Z,42464.00
2022-08-07T07:00:46.476Z,23264.00
2022-08-07T07:01:48.830Z,40736.00
2022-08-07T07:02:54.613Z,46688.00
2022-08-07T07:03:48.250Z,64256.00
2022-08-07T07:04:55.102Z,61152.00
2022-08-07T07:06:02.840Z,76672.00
2022-08-07T07:07:00.179Z,85856.00
2022-08-07T07:07:59.880Z,86656.00
2022-08-07T07:08:47.963Z,54080.00
2022-08-07T07:09:47.150Z,30464.00
2022-08-07T07:10:57.034Z,4648.00
2022-08-07T07:12:07.848Z,5932.00
2022-08-07T07:12:50.225Z,5028.00
2022-08-07T07:13:58.264Z,2808.00
2022-08-07T07:14:49.038Z,6160.00
2022-08-07T07:15:51.772Z,4388.00
2022-08-07T07:16:51.162Z,13552.00
2022-08-07T07:17:50.363Z,15272.00
2022-08-07T07:18:48.806Z,3896.00
2022-08-07T07:19:57.460Z,2444.00
2022-08-07T07:20:50.551Z,2608.00
2022-08-07T07:22:12.318Z,3020.00
2022-08-07T07:24:06.342Z,2760.00
2022-08-07T07:24:09.133Z,2868.00
2022-08-07T07:24:58.507Z,3316.00
2022-08-07T07:26:34.132Z,2612.00
2022-08-07T07:26:52.574Z,2512.00
2022-08-07T07:27:56.071Z,4984.00
2022-08-07T07:29:39.318Z,9884.00
2022-08-07T07:30:07.486Z,32576.00
2022-08-07T07:30:51.920Z,54496.00
2022-08-07T07:31:51.051Z,45856.00
2022-08-07T07:32:52.062Z,55968.00
2022-08-07T07:33:56.435Z,77472.00
2022-08-07T07:34:52.512Z,84992.00
2022-08-07T07:36:04.004Z,51648.00
2022-08-07T07:36:54.122Z,34976.00
2022-08-07T07:38:02.274Z,31840.00
2022-08-07T07:38:54.226Z,6428.00
2022-08-07T07:39:55.395Z,12932.00
2022-08-07T07:40:52.565Z,26400.00
2022-08-07T07:42:13.693Z,22816.00
2022-08-07T07:42:55.604Z,7080.00
2022-08-07T07:44:17.917Z,6068.00
2022-08-07T07:44:54.164Z,8964.00
2022-08-07T07:46:38.023Z,4848.00
2022-08-07T07:47:04.241Z,3272.00
2022-08-07T07:47:54.781Z,2580.00
2022-08-07T07:48:59.870Z,2568.00
2022-08-07T07:50:32.964Z,2564.00
2022-08-07T07:50:55.078Z,6776.00
2022-08-07T07:51:57.421Z,9168.00
2022-08-07T07:52:55.061Z,4856.00
2022-08-07T07:53:55.613Z,2616.00
2022-08-07T07:54:54.829Z,2576.00
2022-08-07T07:56:00.495Z,2572.00
2022-08-07T07:56:57.481Z,2564.00
2022-08-07T07:57:58.457Z,2564.00
2022-08-07T07:58:55.558Z,2568.00
2022-08-07T07:59:55.797Z,2572.00
2022-08-07T08:00:56.563Z,2604.00
2022-08-07T08:02:03.602Z,3452.00
2022-08-07T08:03:04.570Z,6380.00
2022-08-07T08:04:11.128Z,5160.00
2022-08-07T08:04:57.752Z,2668.00
2022-08-07T08:05:57.565Z,2560.00
2022-08-07T08:07:02.688Z,2524.00
2022-08-07T08:08:00.742Z,2520.00
2022-08-07T08:08:58.067Z,2524.00
2022-08-07T08:10:04.789Z,2524.00
2022-08-07T08:10:58.950Z,2548.00
2022-08-07T08:12:02.506Z,2516.00
2022-08-07T08:12:59.905Z,2520.00
2022-08-07T08:13:58.615Z,2416.00
2022-08-07T08:14:59.568Z,2500.00
2022-08-07T08:16:00.581Z,2548.00
2022-08-07T08:17:55.980Z,2508.00
2022-08-07T08:18:17.223Z,2476.00
2022-08-07T08:19:09.552Z,2476.00
2022-08-07T08:20:17.916Z,2444.00
2022-08-07T08:21:00.661Z,2448.00
2022-08-07T08:22:03.343Z,2480.00
2022-08-07T08:23:00.102Z,2436.00
2022-08-07T08:24:01.290Z,2436.00
2022-08-07T08:25:18.691Z,2428.00
2022-08-07T08:26:06.659Z,2408.00
2022-08-07T08:27:06.002Z,2380.00
2022-08-07T08:28:03.873Z,2396.00
2022-08-07T08:29:01.197Z,2408.00
2022-08-07T08:30:03.836Z,2396.00
2022-08-07T08:31:01.477Z,2432.00
2022-08-07T08:32:18.386Z,2400.00
2022-08-07T08:33:03.012Z,2404.00
2022-08-07T08:34:02.006Z,2532.00
2022-08-07T08:35:02.135Z,2316.00
2022-08-07T08:36:02.337Z,2356.00
2022-08-07T08:37:02.529Z,2532.00
2022-08-07T08:38:03.446Z,2360.00
2022-08-07T08:39:03.032Z,2352.00
2022-08-07T08:40:03.223Z,2332.00
2022-08-07T08:41:03.593Z,2328.00
2022-08-07T08:42:04.075Z,2312.00
2022-08-07T08:43:03.710Z,2324.00
2022-08-07T08:44:04.603Z,2336.00
2022-08-07T08:45:05.083Z,2320.00
2022-08-07T08:46:04.595Z,2292.00
2022-08-07T08:47:04.501Z,2304.00
2022-08-07T08:48:04.720Z,2324.00
2022-08-07T08:49:05.198Z,2292.00
2022-08-07T08:50:06.066Z,2456.00
2022-08-07T08:51:14.269Z,2288.00
2022-08-07T08:52:14.293Z,2276.00
2022-08-07T08:53:07.609Z,2256.00
2022-08-07T08:54:05.836Z,2264.00
2022-08-07T08:55:07.798Z,2260.00
2022-08-07T08:56:06.135Z,2320.00
2022-08-07T08:57:06.360Z,2272.00
2022-08-07T08:58:06.521Z,2248.00
2022-08-07T08:59:13.800Z,2264.00
2022-08-07T09:00:08.583Z,2248.00
2022-08-07T09:01:15.148Z,2268.00
2022-08-07T09:02:08.698Z,2272.00
2022-08-07T09:03:07.702Z,2268.00
2022-08-07T09:04:07.600Z,2256.00
2022-08-07T09:05:07.692Z,2240.00
2022-08-07T09:06:08.592Z,2248.00
2022-08-07T09:07:11.133Z,2264.00
2022-08-07T09:08:08.268Z,2240.00
2022-08-07T09:09:09.556Z,2844.00
2022-08-07T09:10:09.580Z,3892.00
2022-08-07T09:11:08.809Z,5888.00
2022-08-07T09:12:30.148Z,2720.00
2022-08-07T09:13:11.072Z,3196.00
2022-08-07T09:14:09.654Z,2148.00
2022-08-07T09:16:21.617Z,5096.00
2022-08-07T09:16:23.001Z,3036.00
2022-08-07T09:17:11.013Z,3400.00
2022-08-07T09:18:15.701Z,5080.00
2022-08-07T09:19:44.759Z,2776.00
2022-08-07T09:20:24.992Z,4332.00
2022-08-07T09:21:13.870Z,2724.00
2022-08-07T09:24:27.262Z,2172.00
2022-08-07T09:24:30.374Z,2060.00
2022-08-07T09:24:34.081Z,2400.00
2022-08-07T09:25:17.452Z,2168.00
2022-08-07T09:26:17.228Z,2160.00
2022-08-07T09:27:13.495Z,2152.00
2022-08-07T09:30:01.390Z,2132.00
2022-08-07T09:30:03.416Z,2516.00
2022-08-07T09:30:14.011Z,2148.00
2022-08-07T09:31:12.642Z,2176.00
2022-08-07T09:32:18.482Z,2164.00
2022-08-07T09:33:16.666Z,2192.00
2022-08-07T09:34:14.130Z,2148.00
2022-08-07T09:36:01.327Z,2156.00
2022-08-07T09:36:14.446Z,2232.00
2022-08-07T09:37:14.110Z,2264.00
2022-08-07T09:38:13.882Z,2356.00
2022-08-07T09:39:52.504Z,2120.00
2022-08-07T09:40:17.914Z,2120.00
2022-08-07T09:41:14.391Z,2244.00
2022-08-07T09:42:17.301Z,2096.00
2022-08-07T09:43:18.016Z,2700.00
2022-08-07T09:44:19.137Z,2504.00
2022-08-07T09:47:24.253Z,3344.00
2022-08-07T09:47:49.910Z,2148.00
2022-08-07T09:47:55.117Z,2284.00
2022-08-07T09:48:19.190Z,2124.00
2022-08-07T09:49:59.734Z,2072.00
2022-08-07T09:50:18.930Z,2044.00
2022-08-07T09:52:10.099Z,2048.00
2022-08-07T09:52:34.057Z,2040.00
2022-08-07T09:53:18.633Z,2036.00
2022-08-07T09:54:16.734Z,2008.00
2022-08-07T09:55:29.384Z,2016.00
2022-08-07T09:56:19.695Z,2484.00
2022-08-07T09:57:19.109Z,2124.00
2022-08-07T09:58:17.416Z,1964.00
2022-08-07T09:59:18.863Z,1948.00
2022-08-07T10:00:18.833Z,1960.00
2022-08-07T10:01:51.081Z,1948.00
2022-08-07T10:02:19.606Z,2016.00
2022-08-07T10:04:06.372Z,2040.00
2022-08-07T10:04:32.544Z,1928.00
2022-08-07T10:05:21.264Z,1948.00
2022-08-07T10:06:19.846Z,2024.00
2022-08-07T10:07:24.575Z,2516.00
2022-08-07T10:08:20.624Z,2540.00
2022-08-07T10:09:34.206Z,1980.00
2022-08-07T10:10:21.938Z,1916.00
2022-08-07T10:12:01.915Z,2032.00
2022-08-07T10:12:21.899Z,1944.00
2022-08-07T10:13:55.003Z,1960.00
2022-08-07T10:14:22.987Z,2540.00
2022-08-07T10:15:21.626Z,2092.00
2022-08-07T10:16:20.727Z,1936.00
2022-08-07T10:17:20.847Z,1912.00
2022-08-07T10:18:21.050Z,2028.00
2022-08-07T10:19:23.111Z,2024.00
2022-08-07T10:20:21.979Z,1988.00
2022-08-07T10:22:13.979Z,2044.00
2022-08-07T10:22:24.892Z,2104.00
2022-08-07T10:24:06.777Z,3220.00
2022-08-07T10:24:23.314Z,2868.00
2022-08-07T10:25:22.761Z,2768.00
2022-08-07T10:26:24.681Z,1940.00
2022-08-07T10:27:22.974Z,1916.00
2022-08-07T10:28:24.134Z,1928.00
2022-08-07T10:29:23.271Z,2024.00
2022-08-07T10:30:23.401Z,2068.00
2022-08-07T10:31:23.654Z,1948.00
2022-08-07T10:32:51.681Z,1880.00
2022-08-07T10:34:05.769Z,1916.00
2022-08-07T10:34:31.795Z,1908.00
2022-08-07T10:35:26.116Z,1908.00
2022-08-07T10:36:29.867Z,1864.00
2022-08-07T10:37:26.364Z,1884.00
2022-08-07T10:38:35.914Z,1868.00
2022-08-07T10:39:41.298Z,1872.00
2022-08-07T10:40:29.942Z,1852.00
2022-08-07T10:41:46.289Z,1852.00
2022-08-07T10:42:31.412Z,1912.00
2022-08-07T10:43:34.192Z,1872.00
2022-08-07T10:44:28.342Z,1848.00
2022-08-07T10:45:57.783Z,1844.00
2022-08-07T10:46:27.370Z,1856.00
2022-08-07T10:47:27.159Z,1848.00
2022-08-07T10:48:34.591Z,1852.00
2022-08-07T10:49:49.474Z,1912.00
2022-08-07T10:50:28.626Z,1908.00
2022-08-07T10:51:39.138Z,1868.00
2022-08-07T10:52:31.736Z,1876.00
2022-08-07T10:53:28.620Z,1876.00
2022-08-07T10:54:28.738Z,1892.00
2022-08-07T10:55:38.590Z,1968.00
2022-08-07T10:56:31.331Z,2416.00
2022-08-07T10:57:34.484Z,2968.00
2022-08-07T10:58:33.000Z,3216.00
2022-08-07T10:59:30.502Z,3056.00
2022-08-07T11:00:39.240Z,2516.00
2022-08-07T11:01:35.190Z,2220.00
2022-08-07T11:02:34.062Z,2100.00
2022-08-07T11:03:37.884Z,2212.00
2022-08-07T11:04:34.664Z,2468.00
2022-08-07T11:05:44.814Z,2372.00
2022-08-07T11:06:30.993Z,2688.00
2022-08-07T11:07:59.468Z,2828.00
2022-08-07T11:08:32.133Z,2684.00
2022-08-07T11:10:06.976Z,2132.00
2022-08-07T11:10:31.833Z,2292.00
2022-08-07T11:11:31.014Z,1928.00
2022-08-07T11:12:35.405Z,1792.00
2022-08-07T11:14:42.402Z,1812.00
2022-08-07T11:14:45.419Z,1800.00
2022-08-07T11:15:33.148Z,1812.00
2022-08-07T11:16:31.977Z,1840.00
2022-08-07T11:17:43.489Z,1840.00
2022-08-07T11:18:33.372Z,1828.00
2022-08-07T11:19:33.133Z,1844.00
2022-08-07T11:20:32.696Z,1880.00
2022-08-07T11:21:32.936Z,1888.00
2022-08-07T11:22:43.953Z,1880.00
2022-08-07T11:23:38.605Z,1892.00
2022-08-07T11:24:33.560Z,1904.00
2022-08-07T11:25:36.121Z,1896.00
2022-08-07T11:26:34.896Z,1900.00
2022-08-07T11:28:02.343Z,1916.00
2022-08-07T11:28:35.337Z,1916.00
2022-08-07T11:29:41.842Z,1928.00
2022-08-07T11:30:41.462Z,1948.00
2022-08-07T11:31:35.805Z,1952.00
2022-08-07T11:32:35.637Z,1968.00
2022-08-07T11:33:53.673Z,2000.00
2022-08-07T11:34:36.650Z,2024.00
2022-08-07T11:35:35.581Z,2004.00
2022-08-07T11:36:37.647Z,1992.00
2022-08-07T11:37:38.683Z,1984.00
2022-08-07T11:38:37.136Z,2012.00
2022-08-07T11:39:58.834Z,2016.00
2022-08-07T11:40:37.628Z,2024.00
2022-08-07T11:42:00.414Z,2016.00
2022-08-07T11:42:38.064Z,2032.00
2022-08-07T11:43:54.183Z,2048.00
2022-08-07T11:44:38.658Z,2068.00
2022-08-07T11:45:38.518Z,2044.00
2022-08-07T11:46:38.619Z,2076.00
2022-08-07T11:47:39.044Z,2140.00
2022-08-07T11:48:38.882Z,2164.00
2022-08-07T11:50:25.468Z,2116.00
2022-08-07T11:50:44.543Z,2152.00
2022-08-07T11:51:41.464Z,2104.00
2022-08-07T11:52:40.165Z,2144.00
2022-08-07T11:53:43.318Z,2176.00
2022-08-07T11:54:40.655Z,2236.00
2022-08-07T11:56:15.503Z,2236.00
2022-08-07T11:56:40.354Z,2240.00
2022-08-07T11:58:00.614Z,2248.00
2022-08-07T11:58:41.174Z,2280.00
2022-08-07T12:00:12.505Z,2236.00
2022-08-07T12:00:41.649Z,2276.00
2022-08-07T12:01:59.697Z,2276.00
2022-08-07T12:02:41.436Z,2332.00
2022-08-07T12:03:45.519Z,2364.00
2022-08-07T12:04:41.653Z,2380.00
2022-08-07T12:05:47.388Z,2404.00
2022-08-07T12:06:44.860Z,2400.00
2022-08-07T12:07:42.503Z,2464.00
2022-08-07T12:08:42.649Z,2508.00
2022-08-07T12:09:42.151Z,2540.00
2022-08-07T12:10:42.191Z,2568.00
2022-08-07T12:11:43.538Z,2584.00
2022-08-07T12:12:43.129Z,2592.00
2022-08-07T12:13:45.075Z,2596.00
2022-08-07T12:14:44.402Z,2616.00
2022-08-07T12:16:05.133Z,2628.00
2022-08-07T12:16:43.818Z,2676.00
2022-08-07T12:17:59.756Z,1664.00
2022-08-07T12:18:45.573Z,2668.00
2022-08-07T12:20:03.960Z,2728.00
2022-08-07T12:20:44.551Z,2720.00
2022-08-07T12:21:55.648Z,2700.00
2022-08-07T12:22:55.848Z,2712.00
2022-08-07T12:24:07.599Z,2720.00
2022-08-07T12:24:45.446Z,2696.00
2022-08-07T12:26:03.250Z,2704.00
2022-08-07T12:26:49.019Z,2712.00
2022-08-07T12:28:30.764Z,2720.00
2022-08-07T12:28:49.815Z,2700.00
2022-08-07T12:29:46.499Z,2704.00
2022-08-07T12:30:53.135Z,2708.00